sensor_id;sensor_type;location;lat;lon;timestamp;pressure;altitude;pressure_sealevel;temperature;humidity
24825;BME280;12910;57.690;11.974;2023-01-27T00:00:34;102188.03;;;-1.18;100.00
24825;BME280;12910;57.690;11.974;2023-01-27T00:03:00;102205.19;;;-1.14;100.00
24825;BME280;12910;57.690;11.974;2023-01-27T00:05:25;102190.44;;;-1.20;100.00
24825;BME280;12910;57.690;11.974;2023-01-27T00:07:51;102210.16;;;-1.24;100.00
24825;BME280;12910;57.690;11.974;2023-01-27T00:10:18;102211.22;;;-1.31;100.00
24825;BME280;12910;57.690;11.974;2023-01-27T00:12:45;102211.91;;;-1.23;100.00
24825;BME280;12910;57.690;11.974;2023-01-27T00:15:29;102218.09;;;-1.20;100.00
24825;BME280;12910;57.690;11.974;2023-01-27T00:17:55;102223.84;;;-1.12;100.00
24825;BME280;12910;57.690;11.974;2023-01-27T00:20:21;102219.13;;;-1.18;100.00
24825;BME280;12910;57.690;11.974;2023-01-27T00:23:24;102217.81;;;-1.23;100.00
24825;BME280;12910;57.690;11.974;2023-01-27T00:26:14;102214.72;;;-1.20;100.00
24825;BME280;12910;57.690;11.974;2023-01-27T00:28:41;102222.81;;;-1.14;100.00
24825;BME280;12910;57.690;11.974;2023-01-27T00:31:09;102217.66;;;-1.16;100.00
24825;BME280;12910;57.690;11.974;2023-01-27T00:33:53;102207.22;;;-1.10;100.00
24825;BME280;12910;57.690;11.974;2023-01-27T00:36:21;102201.59;;;-1.07;100.00
24825;BME280;12910;57.690;11.974;2023-01-27T00:38:46;102209.56;;;-1.03;100.00
24825;BME280;12910;57.690;11.974;2023-01-27T00:41:12;102206.53;;;-0.99;100.00
24825;BME280;12910;57.690;11.974;2023-01-27T00:43:44;102193.72;;;-1.02;100.00
24825;BME280;12910;57.690;11.974;2023-01-27T00:46:10;102190.16;;;-1.04;100.00
24825;BME280;12910;57.690;11.974;2023-01-27T00:48:35;102198.75;;;-1.02;100.00
24825;BME280;12910;57.690;11.974;2023-01-27T00:51:01;102204.78;;;-1.00;100.00
24825;BME280;12910;57.690;11.974;2023-01-27T00:53:26;102200.75;;;-0.98;100.00
24825;BME280;12910;57.690;11.974;2023-01-27T00:55:52;102189.84;;;-0.98;100.00
24825;BME280;12910;57.690;11.974;2023-01-27T00:58:17;102189.16;;;-1.06;100.00
24825;BME280;12910;57.690;11.974;2023-01-27T01:00:43;102196.06;;;-1.03;100.00
24825;BME280;12910;57.690;11.974;2023-01-27T01:03:09;102198.34;;;-1.06;100.00
24825;BME280;12910;57.690;11.974;2023-01-27T01:05:34;102196.56;;;-1.07;100.00
24825;BME280;12910;57.690;11.974;2023-01-27T01:07:59;102203.69;;;-1.12;100.00
24825;BME280;12910;57.690;11.974;2023-01-27T01:10:25;102190.03;;;-1.24;100.00
24825;BME280;12910;57.690;11.974;2023-01-27T01:12:50;102205.19;;;-1.14;100.00
24825;BME280;12910;57.690;11.974;2023-01-27T01:15:15;102200.16;;;-1.14;100.00
24825;BME280;12910;57.690;11.974;2023-01-27T01:17:41;102194.59;;;-1.20;100.00
24825;BME280;12910;57.690;11.974;2023-01-27T01:20:07;102215.78;;;-1.08;100.00
24825;BME280;12910;57.690;11.974;2023-01-27T01:22:33;102214.09;;;-1.18;100.00
24825;BME280;12910;57.690;11.974;2023-01-27T01:24:58;102222.69;;;-1.16;100.00
24825;BME280;12910;57.690;11.974;2023-01-27T01:27:24;102220.00;;;-1.17;100.00
24825;BME280;12910;57.690;11.974;2023-01-27T01:29:49;102215.53;;;-1.11;100.00
24825;BME280;12910;57.690;11.974;2023-01-27T01:32:14;102204.44;;;-1.13;100.00
24825;BME280;12910;57.690;11.974;2023-01-27T01:34:40;102219.78;;;-1.10;100.00
24825;BME280;12910;57.690;11.974;2023-01-27T01:37:05;102220.22;;;-1.24;100.00
24825;BME280;12910;57.690;11.974;2023-01-27T01:39:31;102225.97;;;-1.26;100.00
24825;BME280;12910;57.690;11.974;2023-01-27T01:41:56;102207.84;;;-1.32;100.00
24825;BME280;12910;57.690;11.974;2023-01-27T01:44:24;102212.94;;;-1.21;100.00
24825;BME280;12910;57.690;11.974;2023-01-27T01:46:50;102204.09;;;-1.27;100.00
24825;BME280;12910;57.690;11.974;2023-01-27T01:49:16;102213.94;;;-1.19;100.00
24825;BME280;12910;57.690;11.974;2023-01-27T01:51:46;102215.31;;;-1.23;100.00
24825;BME280;12910;57.690;11.974;2023-01-27T01:54:34;102216.31;;;-1.40;100.00
24825;BME280;12910;57.690;11.974;2023-01-27T01:57:07;102222.09;;;-1.41;100.00
24825;BME280;12910;57.690;11.974;2023-01-27T01:59:41;102224.50;;;-1.51;100.00
24825;BME280;12910;57.690;11.974;2023-01-27T02:02:13;102222.25;;;-1.48;100.00
24825;BME280;12910;57.690;11.974;2023-01-27T02:04:44;102208.41;;;-1.53;100.00
24825;BME280;12910;57.690;11.974;2023-01-27T02:07:21;102210.47;;;-1.49;100.00
24825;BME280;12910;57.690;11.974;2023-01-27T02:09:49;102212.41;;;-1.55;100.00
24825;BME280;12910;57.690;11.974;2023-01-27T02:12:14;102223.47;;;-1.53;100.00
24825;BME280;12910;57.690;11.974;2023-01-27T02:14:40;102227.63;;;-1.54;100.00
24825;BME280;12910;57.690;11.974;2023-01-27T02:17:06;102231.81;;;-1.63;100.00
24825;BME280;12910;57.690;11.974;2023-01-27T02:19:49;102222.34;;;-1.66;100.00
24825;BME280;12910;57.690;11.974;2023-01-27T02:22:25;102227.69;;;-1.63;100.00
24825;BME280;12910;57.690;11.974;2023-01-27T02:24:58;102241.84;;;-1.63;100.00
24825;BME280;12910;57.690;11.974;2023-01-27T02:27:29;102246.56;;;-1.58;100.00
24825;BME280;12910;57.690;11.974;2023-01-27T02:29:54;102243.31;;;-1.57;100.00
24825;BME280;12910;57.690;11.974;2023-01-27T02:32:24;102240.69;;;-1.67;100.00
24825;BME280;12910;57.690;11.974;2023-01-27T02:34:51;102241.16;;;-1.71;100.00
24825;BME280;12910;57.690;11.974;2023-01-27T02:37:17;102242.34;;;-1.76;100.00
24825;BME280;12910;57.690;11.974;2023-01-27T02:39:45;102238.69;;;-1.80;100.00
24825;BME280;12910;57.690;11.974;2023-01-27T02:42:14;102250.19;;;-1.73;100.00
24825;BME280;12910;57.690;11.974;2023-01-27T02:44:41;102256.81;;;-1.65;100.00
24825;BME280;12910;57.690;11.974;2023-01-27T02:47:07;102248.81;;;-1.61;100.00
24825;BME280;12910;57.690;11.974;2023-01-27T02:49:32;102242.19;;;-1.69;100.00
24825;BME280;12910;57.690;11.974;2023-01-27T02:51:57;102254.44;;;-1.63;100.00
24825;BME280;12910;57.690;11.974;2023-01-27T02:54:24;102270.28;;;-1.64;100.00
24825;BME280;12910;57.690;11.974;2023-01-27T02:56:50;102276.06;;;-1.74;100.00
24825;BME280;12910;57.690;11.974;2023-01-27T02:59:16;102249.63;;;-1.79;100.00
24825;BME280;12910;57.690;11.974;2023-01-27T03:01:41;102263.63;;;-1.73;100.00
24825;BME280;12910;57.690;11.974;2023-01-27T03:04:06;102259.03;;;-1.68;100.00
24825;BME280;12910;57.690;11.974;2023-01-27T03:06:33;102266.88;;;-1.65;100.00
24825;BME280;12910;57.690;11.974;2023-01-27T03:08:58;102253.44;;;-1.65;100.00
24825;BME280;12910;57.690;11.974;2023-01-27T03:11:24;102259.03;;;-1.68;100.00
24825;BME280;12910;57.690;11.974;2023-01-27T03:14:08;102254.78;;;-1.69;100.00
24825;BME280;12910;57.690;11.974;2023-01-27T03:16:34;102255.66;;;-1.68;100.00
24825;BME280;12910;57.690;11.974;2023-01-27T03:19:18;102247.81;;;-1.72;100.00
24825;BME280;12910;57.690;11.974;2023-01-27T03:21:44;102247.97;;;-1.70;100.00
24825;BME280;12910;57.690;11.974;2023-01-27T03:24:10;102246.81;;;-1.74;100.00
24825;BME280;12910;57.690;11.974;2023-01-27T03:26:35;102243.69;;;-1.71;100.00
24825;BME280;12910;57.690;11.974;2023-01-27T03:29:03;102237.75;;;-1.72;100.00
24825;BME280;12910;57.690;11.974;2023-01-27T03:31:47;102241.31;;;-1.69;100.00
24825;BME280;12910;57.690;11.974;2023-01-27T03:34:12;102242.94;;;-1.70;100.00
24825;BME280;12910;57.690;11.974;2023-01-27T03:36:37;102237.50;;;-1.75;100.00
24825;BME280;12910;57.690;11.974;2023-01-27T03:39:21;102230.41;;;-1.88;100.00
24825;BME280;12910;57.690;11.974;2023-01-27T03:42:05;102251.13;;;-1.81;100.00
24825;BME280;12910;57.690;11.974;2023-01-27T03:44:49;102254.19;;;-1.75;100.00
24825;BME280;12910;57.690;11.974;2023-01-27T03:47:33;102248.97;;;-1.68;100.00
24825;BME280;12910;57.690;11.974;2023-01-27T03:49:58;102251.66;;;-1.75;100.00
24825;BME280;12910;57.690;11.974;2023-01-27T03:52:23;102251.41;;;-1.78;100.00
24825;BME280;12910;57.690;11.974;2023-01-27T03:54:49;102241.66;;;-1.84;100.00
24825;BME280;12910;57.690;11.974;2023-01-27T03:57:14;102245.19;;;-1.82;100.00
24825;BME280;12910;57.690;11.974;2023-01-27T03:59:40;102221.03;;;-1.99;100.00
24825;BME280;12910;57.690;11.974;2023-01-27T04:02:05;102235.19;;;-1.91;100.00
24825;BME280;12910;57.690;11.974;2023-01-27T04:04:49;102255.28;;;-1.91;100.00
24825;BME280;12910;57.690;11.974;2023-01-27T04:07:34;102253.94;;;-1.78;100.00
24825;BME280;12910;57.690;11.974;2023-01-27T04:10:00;102240.75;;;-1.76;100.00
24825;BME280;12910;57.690;11.974;2023-01-27T04:12:25;102248.09;;;-1.68;100.00
24825;BME280;12910;57.690;11.974;2023-01-27T04:14:50;102246.00;;;-1.64;100.00
24825;BME280;12910;57.690;11.974;2023-01-27T04:17:18;102243.41;;;-1.74;100.00
24825;BME280;12910;57.690;11.974;2023-01-27T04:19:44;102237.53;;;-1.92;100.00
24825;BME280;12910;57.690;11.974;2023-01-27T04:22:13;102228.09;;;-1.95;100.00
24825;BME280;12910;57.690;11.974;2023-01-27T04:24:40;102233.53;;;-1.90;100.00
24825;BME280;12910;57.690;11.974;2023-01-27T04:27:11;102231.88;;;-1.81;100.00
24825;BME280;12910;57.690;11.974;2023-01-27T04:29:39;102238.97;;;-1.77;100.00
24825;BME280;12910;57.690;11.974;2023-01-27T04:32:09;102244.13;;;-1.75;100.00
24825;BME280;12910;57.690;11.974;2023-01-27T04:34:36;102248.00;;;-1.79;100.00
24825;BME280;12910;57.690;11.974;2023-01-27T04:37:02;102253.50;;;-1.83;100.00
24825;BME280;12910;57.690;11.974;2023-01-27T04:39:29;102256.56;;;-1.77;100.00
24825;BME280;12910;57.690;11.974;2023-01-27T04:41:55;102258.47;;;-1.74;100.00
24825;BME280;12910;57.690;11.974;2023-01-27T04:44:20;102257.28;;;-1.69;100.00
24825;BME280;12910;57.690;11.974;2023-01-27T04:46:47;102273.22;;;-1.60;100.00
24825;BME280;12910;57.690;11.974;2023-01-27T04:49:13;102258.44;;;-1.65;100.00
24825;BME280;12910;57.690;11.974;2023-01-27T04:51:38;102255.22;;;-1.73;100.00
24825;BME280;12910;57.690;11.974;2023-01-27T04:54:04;102265.84;;;-1.67;100.00
24825;BME280;12910;57.690;11.974;2023-01-27T04:56:41;102258.78;;;-1.71;100.00
24825;BME280;12910;57.690;11.974;2023-01-27T04:59:12;102258.28;;;-1.67;100.00
24825;BME280;12910;57.690;11.974;2023-01-27T05:01:39;102260.81;;;-1.67;100.00
24825;BME280;12910;57.690;11.974;2023-01-27T05:04:05;102259.63;;;-1.62;100.00
24825;BME280;12910;57.690;11.974;2023-01-27T05:06:30;102245.72;;;-1.67;100.00
24825;BME280;12910;57.690;11.974;2023-01-27T05:08:56;102246.88;;;-1.63;100.00
24825;BME280;12910;57.690;11.974;2023-01-27T05:11:21;102262.97;;;-1.52;100.00
24825;BME280;12910;57.690;11.974;2023-01-27T05:13:47;102260.75;;;-1.49;100.00
24825;BME280;12910;57.690;11.974;2023-01-27T05:16:15;102242.66;;;-1.73;100.00
24825;BME280;12910;57.690;11.974;2023-01-27T05:18:42;102254.59;;;-1.62;100.00
24825;BME280;12910;57.690;11.974;2023-01-27T05:21:11;102258.13;;;-1.60;100.00
24825;BME280;12910;57.690;11.974;2023-01-27T05:23:37;102262.22;;;-1.51;100.00
24825;BME280;12910;57.690;11.974;2023-01-27T05:26:08;102250.84;;;-1.57;100.00
24825;BME280;12910;57.690;11.974;2023-01-27T05:28:35;102254.69;;;-1.51;100.00
24825;BME280;12910;57.690;11.974;2023-01-27T05:31:11;102249.25;;;-1.56;100.00
24825;BME280;12910;57.690;11.974;2023-01-27T05:33:37;102252.63;;;-1.55;100.00
24825;BME280;12910;57.690;11.974;2023-01-27T05:36:05;102261.66;;;-1.58;100.00
24825;BME280;12910;57.690;11.974;2023-01-27T05:38:31;102255.47;;;-1.61;100.00
24825;BME280;12910;57.690;11.974;2023-01-27T05:40:58;102256.06;;;-1.64;100.00
24825;BME280;12910;57.690;11.974;2023-01-27T05:43:26;102249.69;;;-1.60;100.00
24825;BME280;12910;57.690;11.974;2023-01-27T05:45:52;102258.41;;;-1.57;100.00
24825;BME280;12910;57.690;11.974;2023-01-27T05:48:17;102255.50;;;-1.70;100.00
24825;BME280;12910;57.690;11.974;2023-01-27T05:50:43;102257.28;;;-1.69;100.00
24825;BME280;12910;57.690;11.974;2023-01-27T05:53:08;102254.66;;;-1.79;100.00
24825;BME280;12910;57.690;11.974;2023-01-27T05:55:33;102254.66;;;-1.79;100.00
24825;BME280;12910;57.690;11.974;2023-01-27T05:57:59;102265.47;;;-1.80;100.00
24825;BME280;12910;57.690;11.974;2023-01-27T06:00:24;102274.16;;;-1.77;100.00
24825;BME280;12910;57.690;11.974;2023-01-27T06:02:50;102273.84;;;-1.71;100.00
24825;BME280;12910;57.690;11.974;2023-01-27T06:05:15;102277.66;;;-1.66;100.00
24825;BME280;12910;57.690;11.974;2023-01-27T06:07:41;102273.53;;;-1.65;100.00
24825;BME280;12910;57.690;11.974;2023-01-27T06:10:07;102260.84;;;-1.76;100.00
24825;BME280;12910;57.690;11.974;2023-01-27T06:12:33;102270.00;;;-1.76;100.00
24825;BME280;12910;57.690;11.974;2023-01-27T06:14:59;102280.34;;;-1.73;100.00
24825;BME280;12910;57.690;11.974;2023-01-27T06:17:24;102279.63;;;-1.72;100.00
24825;BME280;12910;57.690;11.974;2023-01-27T06:19:50;102268.59;;;-1.92;100.00
24825;BME280;12910;57.690;11.974;2023-01-27T06:22:15;102297.09;;;-1.82;100.00
24825;BME280;12910;57.690;11.974;2023-01-27T06:24:41;102295.19;;;-1.85;100.00
24825;BME280;12910;57.690;11.974;2023-01-27T06:27:06;102290.47;;;-1.91;100.00
24825;BME280;12910;57.690;11.974;2023-01-27T06:29:31;102296.66;;;-1.87;100.00
24825;BME280;12910;57.690;11.974;2023-01-27T06:31:57;102293.09;;;-1.80;100.00
24825;BME280;12910;57.690;11.974;2023-01-27T06:34:22;102293.84;;;-1.81;100.00
24825;BME280;12910;57.690;11.974;2023-01-27T06:36:47;102299.31;;;-1.85;100.00
24825;BME280;12910;57.690;11.974;2023-01-27T06:39:13;102300.22;;;-1.94;100.00
24825;BME280;12910;57.690;11.974;2023-01-27T06:41:38;102305.25;;;-1.94;100.00
24825;BME280;12910;57.690;11.974;2023-01-27T06:44:04;102291.66;;;-1.96;100.00
24825;BME280;12910;57.690;11.974;2023-01-27T06:46:29;102303.59;;;-1.84;100.00
24825;BME280;12910;57.690;11.974;2023-01-27T06:48:54;102288.22;;;-1.88;100.00
24825;BME280;12910;57.690;11.974;2023-01-27T06:51:20;102277.00;;;-1.91;100.00
24825;BME280;12910;57.690;11.974;2023-01-27T06:53:45;102290.44;;;-1.82;100.00
24825;BME280;12910;57.690;11.974;2023-01-27T06:56:10;102295.31;;;-1.75;100.00
24825;BME280;12910;57.690;11.974;2023-01-27T06:58:36;102299.59;;;-1.82;100.00
24825;BME280;12910;57.690;11.974;2023-01-27T07:01:03;102301.38;;;-1.81;100.00
24825;BME280;12910;57.690;11.974;2023-01-27T07:03:29;102304.34;;;-1.85;100.00
24825;BME280;12910;57.690;11.974;2023-01-27T07:05:54;102299.47;;;-1.84;100.00
24825;BME280;12910;57.690;11.974;2023-01-27T07:08:19;102311.75;;;-1.78;100.00
24825;BME280;12910;57.690;11.974;2023-01-27T07:10:45;102298.41;;;-1.77;100.00
24825;BME280;12910;57.690;11.974;2023-01-27T07:13:12;102299.59;;;-1.74;100.00
24825;BME280;12910;57.690;11.974;2023-01-27T07:15:38;102291.56;;;-1.69;100.00
24825;BME280;12910;57.690;11.974;2023-01-27T07:18:03;102292.63;;;-1.67;100.00
24825;BME280;12910;57.690;11.974;2023-01-27T07:20:30;102298.09;;;-1.72;100.00
24825;BME280;12910;57.690;11.974;2023-01-27T07:23:00;102298.81;;;-1.64;100.00
24825;BME280;12910;57.690;11.974;2023-01-27T07:25:27;102286.53;;;-1.61;100.00
24825;BME280;12910;57.690;11.974;2023-01-27T07:27:52;102279.72;;;-1.62;100.00
24825;BME280;12910;57.690;11.974;2023-01-27T07:30:18;102292.44;;;-1.60;100.00
24825;BME280;12910;57.690;11.974;2023-01-27T07:32:43;102282.38;;;-1.60;100.00
24825;BME280;12910;57.690;11.974;2023-01-27T07:35:09;102283.53;;;-1.57;100.00
24825;BME280;12910;57.690;11.974;2023-01-27T07:37:34;102288.88;;;-1.53;100.00
24825;BME280;12910;57.690;11.974;2023-01-27T07:40:00;102288.44;;;-1.58;100.00
24825;BME280;12910;57.690;11.974;2023-01-27T07:42:25;102284.28;;;-1.58;100.00
24825;BME280;12910;57.690;11.974;2023-01-27T07:44:50;102291.25;;;-1.64;100.00
24825;BME280;12910;57.690;11.974;2023-01-27T07:47:16;102284.00;;;-1.61;100.00
24825;BME280;12910;57.690;11.974;2023-01-27T07:49:41;102276.38;;;-1.71;100.00
24825;BME280;12910;57.690;11.974;2023-01-27T07:52:06;102295.44;;;-1.64;100.00
24825;BME280;12910;57.690;11.974;2023-01-27T07:54:32;102298.69;;;-1.65;100.00
24825;BME280;12910;57.690;11.974;2023-01-27T07:57:00;102301.19;;;-1.65;100.00
24825;BME280;12910;57.690;11.974;2023-01-27T07:59:27;102295.00;;;-1.69;100.00
24825;BME280;12910;57.690;11.974;2023-01-27T08:01:52;102291.56;;;-1.69;100.00
24825;BME280;12910;57.690;11.974;2023-01-27T08:04:18;102291.72;;;-1.68;100.00
24825;BME280;12910;57.690;11.974;2023-01-27T08:06:43;102301.94;;;-1.66;100.00
24825;BME280;12910;57.690;11.974;2023-01-27T08:09:09;102304.88;;;-1.62;100.00
24825;BME280;12910;57.690;11.974;2023-01-27T08:11:34;102302.50;;;-1.60;100.00
24825;BME280;12910;57.690;11.974;2023-01-27T08:14:00;102294.66;;;-1.63;100.00
24825;BME280;12910;57.690;11.974;2023-01-27T08:16:26;102310.63;;;-1.54;100.00
24825;BME280;12910;57.690;11.974;2023-01-27T08:18:52;102305.44;;;-1.55;100.00
24825;BME280;12910;57.690;11.974;2023-01-27T08:21:18;102310.75;;;-1.52;100.00
24825;BME280;12910;57.690;11.974;2023-01-27T08:23:44;102306.59;;;-1.52;100.00
24825;BME280;12910;57.690;11.974;2023-01-27T08:26:09;102288.31;;;-1.60;100.00
24825;BME280;12910;57.690;11.974;2023-01-27T08:28:37;102309.28;;;-1.50;100.00
24825;BME280;12910;57.690;11.974;2023-01-27T08:31:08;102302.28;;;-1.44;100.00
24825;BME280;12910;57.690;11.974;2023-01-27T08:33:34;102298.28;;;-1.42;100.00
24825;BME280;12910;57.690;11.974;2023-01-27T08:36:09;102295.78;;;-1.42;100.00
24825;BME280;12910;57.690;11.974;2023-01-27T08:38:36;102291.91;;;-1.38;100.00
24825;BME280;12910;57.690;11.974;2023-01-27T08:41:07;102291.78;;;-1.40;100.00
24825;BME280;12910;57.690;11.974;2023-01-27T08:43:33;102290.16;;;-1.48;100.00
24825;BME280;12910;57.690;11.974;2023-01-27T08:45:59;102303.56;;;-1.39;100.00
24825;BME280;12910;57.690;11.974;2023-01-27T08:48:26;102282.91;;;-1.45;100.00
24825;BME280;12910;57.690;11.974;2023-01-27T08:50:52;102298.00;;;-1.45;100.00
24825;BME280;12910;57.690;11.974;2023-01-27T08:53:18;102304.66;;;-1.46;100.00
24825;BME280;12910;57.690;11.974;2023-01-27T08:55:45;102299.47;;;-1.47;100.00
24825;BME280;12910;57.690;11.974;2023-01-27T08:58:10;102285.91;;;-1.49;100.00
24825;BME280;12910;57.690;11.974;2023-01-27T09:00:35;102282.47;;;-1.50;100.00
24825;BME280;12910;57.690;11.974;2023-01-27T09:03:01;102284.13;;;-1.50;100.00
24825;BME280;12910;57.690;11.974;2023-01-27T09:05:26;102291.78;;;-1.40;100.00
24825;BME280;12910;57.690;11.974;2023-01-27T09:07:52;102282.91;;;-1.45;100.00
24825;BME280;12910;57.690;11.974;2023-01-27T09:10:18;102279.34;;;-1.47;100.00
24825;BME280;12910;57.690;11.974;2023-01-27T09:12:44;102283.03;;;-1.44;100.00
24825;BME280;12910;57.690;11.974;2023-01-27T09:15:10;102276.41;;;-1.43;100.00
24825;BME280;12910;57.690;11.974;2023-01-27T09:17:36;102287.91;;;-1.36;100.00
24825;BME280;12910;57.690;11.974;2023-01-27T09:20:01;102277.44;;;-1.41;100.00
24825;BME280;12910;57.690;11.974;2023-01-27T09:22:26;102286.56;;;-1.33;100.00
24825;BME280;12910;57.690;11.974;2023-01-27T09:24:52;102287.28;;;-1.34;100.00
24825;BME280;12910;57.690;11.974;2023-01-27T09:27:17;102288.78;;;-1.36;100.00
24825;BME280;12910;57.690;11.974;2023-01-27T09:29:43;102301.66;;;-1.33;100.00
24825;BME280;12910;57.690;11.974;2023-01-27T09:32:08;102301.44;;;-1.26;100.00
24825;BME280;12910;57.690;11.974;2023-01-27T09:34:36;102294.94;;;-1.23;100.00
24825;BME280;12910;57.690;11.974;2023-01-27T09:37:06;102307.31;;;-1.16;100.00
24825;BME280;12910;57.690;11.974;2023-01-27T09:39:36;102305.84;;;-1.14;100.00
24825;BME280;12910;57.690;11.974;2023-01-27T09:47:58;102308.66;;;-1.11;100.00
24825;BME280;12910;57.690;11.974;2023-01-27T09:50:54;102318.22;;;-1.07;100.00
24825;BME280;12910;57.690;11.974;2023-01-27T09:53:36;102304.91;;;-1.06;100.00
24825;BME280;12910;57.690;11.974;2023-01-27T10:12:46;102290.63;;;-0.97;100.00
24825;BME280;12910;57.690;11.974;2023-01-27T10:15:18;102289.44;;;-0.91;100.00
24825;BME280;12910;57.690;11.974;2023-01-27T10:20:34;102279.00;;;-0.86;100.00
24825;BME280;12910;57.690;11.974;2023-01-27T10:26:00;102289.47;;;-0.81;100.00
24825;BME280;12910;57.690;11.974;2023-01-27T10:28:33;102296.44;;;-0.79;100.00
24825;BME280;12910;57.690;11.974;2023-01-27T10:31:07;102285.00;;;-0.75;100.00
24825;BME280;12910;57.690;11.974;2023-01-27T10:33:53;102287.25;;;-0.78;100.00
24825;BME280;12910;57.690;11.974;2023-01-27T10:36:42;102283.16;;;-0.86;100.00
24825;BME280;12910;57.690;11.974;2023-01-27T10:44:37;102284.94;;;-0.85;100.00
24825;BME280;12910;57.690;11.974;2023-01-27T10:51:00;102283.16;;;-0.86;100.00
24825;BME280;12910;57.690;11.974;2023-01-27T10:53:21;102280.94;;;-0.83;100.00
24825;BME280;12910;57.690;11.974;2023-01-27T10:56:08;102277.16;;;-0.78;100.00
24825;BME280;12910;57.690;11.974;2023-01-27T11:01:03;102269.22;;;-0.83;100.00
24825;BME280;12910;57.690;11.974;2023-01-27T11:03:45;102262.41;;;-0.84;100.00
24825;BME280;12910;57.690;11.974;2023-01-27T11:06:16;102273.91;;;-0.77;100.00
24825;BME280;12910;57.690;11.974;2023-01-27T11:08:50;102274.03;;;-0.75;100.00
24825;BME280;12910;57.690;11.974;2023-01-27T11:11:20;102267.09;;;-0.78;100.00
24825;BME280;12910;57.690;11.974;2023-01-27T11:14:22;102275.06;;;-0.73;100.00
24825;BME280;12910;57.690;11.974;2023-01-27T11:16:56;102273.69;;;-0.70;100.00
24825;BME280;12910;57.690;11.974;2023-01-27T11:21:58;102261.09;;;-0.70;100.00
24825;BME280;12910;57.690;11.974;2023-01-27T11:24:42;102262.66;;;-0.61;100.00
24825;BME280;12910;57.690;11.974;2023-01-27T11:29:57;102262.72;;;-0.51;100.00
24825;BME280;12910;57.690;11.974;2023-01-27T11:35:11;102261.75;;;-0.43;100.00
24825;BME280;12910;57.690;11.974;2023-01-27T11:40:33;102250.41;;;-0.29;100.00
24825;BME280;12910;57.690;11.974;2023-01-27T11:43:00;102237.41;;;-0.23;100.00
24825;BME280;12910;57.690;11.974;2023-01-27T11:45:34;102231.16;;;-0.18;100.00
24825;BME280;12910;57.690;11.974;2023-01-27T11:48:01;102233.81;;;-0.06;100.00
24825;BME280;12910;57.690;11.974;2023-01-27T11:50:30;102221.78;;;0.00;100.00
24825;BME280;12910;57.690;11.974;2023-01-27T11:53:12;102218.00;;;0.05;100.00
24825;BME280;12910;57.690;11.974;2023-01-27T11:55:42;102222.78;;;0.12;100.00
24825;BME280;12910;57.690;11.974;2023-01-27T11:58:16;102218.41;;;0.20;100.00
24825;BME280;12910;57.690;11.974;2023-01-27T12:00:51;102211.84;;;0.22;100.00
24825;BME280;12910;57.690;11.974;2023-01-27T12:06:01;102204.31;;;0.33;100.00
24825;BME280;12910;57.690;11.974;2023-01-27T12:11:20;102184.63;;;0.39;100.00
24825;BME280;12910;57.690;11.974;2023-01-27T12:13:47;102182.22;;;0.40;100.00
24825;BME280;12910;57.690;11.974;2023-01-27T12:16:14;102175.94;;;0.45;100.00
24825;BME280;12910;57.690;11.974;2023-01-27T12:18:48;102167.47;;;0.55;100.00
24825;BME280;12910;57.690;11.974;2023-01-27T12:21:16;102172.50;;;0.66;100.00
24825;BME280;12910;57.690;11.974;2023-01-27T12:23:48;102166.22;;;0.71;100.00
24825;BME280;12910;57.690;11.974;2023-01-27T12:26:32;102160.63;;;0.75;100.00
24825;BME280;12910;57.690;11.974;2023-01-27T12:29:03;102159.63;;;0.83;100.00
24825;BME280;12910;57.690;11.974;2023-01-27T12:31:30;102142.09;;;0.85;100.00
24825;BME280;12910;57.690;11.974;2023-01-27T12:34:03;102150.91;;;0.90;100.00
24825;BME280;12910;57.690;11.974;2023-01-27T12:36:36;102145.19;;;0.92;100.00
24825;BME280;12910;57.690;11.974;2023-01-27T12:39:03;102141.16;;;0.95;100.00
24825;BME280;12910;57.690;11.974;2023-01-27T12:41:30;102138.38;;;1.02;100.00
24825;BME280;12910;57.690;11.974;2023-01-27T12:46:27;102139.09;;;1.11;100.00
24825;BME280;12910;57.690;11.974;2023-01-27T12:49:00;102130.91;;;1.14;100.00
24825;BME280;12910;57.690;11.974;2023-01-27T12:51:44;102131.38;;;1.20;100.00
24825;BME280;12910;57.690;11.974;2023-01-27T12:54:20;102124.16;;;1.24;100.00
24825;BME280;12910;57.690;11.974;2023-01-27T12:56:47;102120.38;;;1.30;100.00
24825;BME280;12910;57.690;11.974;2023-01-27T12:59:16;102119.81;;;1.34;100.00
24825;BME280;12910;57.690;11.974;2023-01-27T13:01:55;102121.19;;;1.40;100.00
24825;BME280;12910;57.690;11.974;2023-01-27T13:04:22;102119.78;;;1.44;100.00
24825;BME280;12910;57.690;11.974;2023-01-27T13:09:51;102123.78;;;1.52;100.00
24825;BME280;12910;57.690;11.974;2023-01-27T13:12:21;102124.03;;;1.55;100.00
24825;BME280;12910;57.690;11.974;2023-01-27T13:14:56;102121.25;;;1.52;100.00
24825;BME280;12910;57.690;11.974;2023-01-27T13:17:34;102109.88;;;1.58;100.00
24825;BME280;12910;57.690;11.974;2023-01-27T13:20:05;102108.47;;;1.61;100.00
24825;BME280;12910;57.690;11.974;2023-01-27T13:22:40;102102.84;;;1.65;100.00
24825;BME280;12910;57.690;11.974;2023-01-27T13:25:19;102086.72;;;1.63;100.00
24825;BME280;12910;57.690;11.974;2023-01-27T13:27:47;102087.06;;;1.68;100.00
24825;BME280;12910;57.690;11.974;2023-01-27T13:30:37;102090.41;;;1.79;100.00
24825;BME280;12910;57.690;11.974;2023-01-27T13:33:23;102088.63;;;1.78;100.00
24825;BME280;12910;57.690;11.974;2023-01-27T13:35:58;102086.22;;;1.79;100.00
24825;BME280;12910;57.690;11.974;2023-01-27T13:38:35;102072.28;;;1.84;100.00
24825;BME280;12910;57.690;11.974;2023-01-27T13:41:08;102077.69;;;1.89;100.00